sensor_id;sensor_type;location;lat;lon;timestamp;pressure;altitude;pressure_sealevel;temperature;humidity
20023;BME280;10172;42.054;24.546;2023-05-23T00:01:06;97907.44;;;14.17;100.00
20023;BME280;10172;42.054;24.546;2023-05-23T00:03:32;97908.81;;;13.82;100.00
20023;BME280;10172;42.054;24.546;2023-05-23T00:05:58;97898.03;;;13.42;100.00
20023;BME280;10172;42.054;24.546;2023-05-23T00:08:24;97902.53;;;13.41;100.00
20023;BME280;10172;42.054;24.546;2023-05-23T00:10:50;97898.44;;;13.37;100.00
20023;BME280;10172;42.054;24.546;2023-05-23T00:13:15;97903.00;;;13.26;100.00
20023;BME280;10172;42.054;24.546;2023-05-23T00:15:42;97903.22;;;12.70;100.00
20023;BME280;10172;42.054;24.546;2023-05-23T00:18:09;97894.06;;;12.84;100.00
20023;BME280;10172;42.054;24.546;2023-05-23T00:20:38;97890.44;;;12.74;100.00
20023;BME280;10172;42.054;24.546;2023-05-23T00:23:08;97876.81;;;12.56;100.00
20023;BME280;10172;42.054;24.546;2023-05-23T00:25:37;97875.69;;;12.90;100.00
20023;BME280;10172;42.054;24.546;2023-05-23T00:28:03;97889.09;;;12.79;100.00
20023;BME280;10172;42.054;24.546;2023-05-23T00:30:30;97890.88;;;12.90;100.00
20023;BME280;10172;42.054;24.546;2023-05-23T00:32:56;97869.09;;;13.05;100.00
20023;BME280;10172;42.054;24.546;2023-05-23T00:35:22;97884.91;;;12.54;100.00
20023;BME280;10172;42.054;24.546;2023-05-23T00:37:50;97878.97;;;12.62;100.00
20023;BME280;10172;42.054;24.546;2023-05-23T00:40:19;97882.09;;;12.67;100.00
20023;BME280;10172;42.054;24.546;2023-05-23T00:42:44;97879.00;;;12.51;100.00
20023;BME280;10172;42.054;24.546;2023-05-23T00:45:11;97881.09;;;12.79;100.00
20023;BME280;10172;42.054;24.546;2023-05-23T00:47:40;97876.53;;;12.70;100.00
20023;BME280;10172;42.054;24.546;2023-05-23T00:50:11;97878.66;;;12.44;100.00
20023;BME280;10172;42.054;24.546;2023-05-23T00:52:37;97878.16;;;12.82;100.00
20023;BME280;10172;42.054;24.546;2023-05-23T00:55:04;97879.63;;;12.86;100.00
20023;BME280;10172;42.054;24.546;2023-05-23T00:57:30;97880.38;;;12.77;100.00
20023;BME280;10172;42.054;24.546;2023-05-23T00:59:59;97868.66;;;13.21;100.00
20023;BME280;10172;42.054;24.546;2023-05-23T01:02:24;97877.38;;;13.64;100.00
20023;BME280;10172;42.054;24.546;2023-05-23T01:04:52;97874.03;;;13.72;100.00
20023;BME280;10172;42.054;24.546;2023-05-23T01:07:22;97876.72;;;14.02;100.00
20023;BME280;10172;42.054;24.546;2023-05-23T01:09:48;97874.00;;;13.42;100.00
20023;BME280;10172;42.054;24.546;2023-05-23T01:15:18;97883.25;;;13.89;100.00
20023;BME280;10172;42.054;24.546;2023-05-23T01:18:09;97883.03;;;13.71;100.00
20023;BME280;10172;42.054;24.546;2023-05-23T01:20:40;97874.06;;;13.31;100.00
20023;BME280;10172;42.054;24.546;2023-05-23T01:23:12;97866.88;;;13.52;100.00
20023;BME280;10172;42.054;24.546;2023-05-23T01:28:51;97863.72;;;13.37;100.00
20023;BME280;10172;42.054;24.546;2023-05-23T01:31:20;97865.34;;;13.29;100.00
20023;BME280;10172;42.054;24.546;2023-05-23T01:33:50;97864.44;;;13.18;100.00
20023;BME280;10172;42.054;24.546;2023-05-23T01:36:18;97861.91;;;13.68;100.00
20023;BME280;10172;42.054;24.546;2023-05-23T01:38:43;97857.31;;;13.49;100.00
20023;BME280;10172;42.054;24.546;2023-05-23T01:41:09;97852.63;;;13.62;100.00
20023;BME280;10172;42.054;24.546;2023-05-23T01:43:34;97851.03;;;13.60;100.00
20023;BME280;10172;42.054;24.546;2023-05-23T01:46:00;97858.41;;;13.47;100.00
20023;BME280;10172;42.054;24.546;2023-05-23T01:48:27;97848.19;;;13.82;100.00
20023;BME280;10172;42.054;24.546;2023-05-23T01:50:54;97857.28;;;14.00;100.00
20023;BME280;10172;42.054;24.546;2023-05-23T01:53:22;97867.59;;;13.84;100.00
20023;BME280;10172;42.054;24.546;2023-05-23T01:55:47;97863.09;;;13.85;100.00
20023;BME280;10172;42.054;24.546;2023-05-23T01:58:13;97866.34;;;14.18;100.00
20023;BME280;10172;42.054;24.546;2023-05-23T02:00:39;97852.03;;;13.59;100.00
20023;BME280;10172;42.054;24.546;2023-05-23T02:03:05;97848.56;;;13.06;100.00
20023;BME280;10172;42.054;24.546;2023-05-23T02:05:31;97849.28;;;13.19;100.00
20023;BME280;10172;42.054;24.546;2023-05-23T02:07:56;97848.72;;;13.46;100.00
20023;BME280;10172;42.054;24.546;2023-05-23T02:10:22;97850.13;;;13.50;100.00
20023;BME280;10172;42.054;24.546;2023-05-23T02:12:47;97854.47;;;14.11;100.00
20023;BME280;10172;42.054;24.546;2023-05-23T02:15:13;97851.53;;;13.74;100.00
20023;BME280;10172;42.054;24.546;2023-05-23T02:17:38;97850.75;;;13.84;100.00
20023;BME280;10172;42.054;24.546;2023-05-23T02:20:06;97848.91;;;13.54;100.00
20023;BME280;10172;42.054;24.546;2023-05-23T02:22:32;97844.13;;;13.57;100.00
20023;BME280;10172;42.054;24.546;2023-05-23T02:24:57;97850.50;;;13.66;100.00
20023;BME280;10172;42.054;24.546;2023-05-23T02:27:22;97850.19;;;12.97;100.00
20023;BME280;10172;42.054;24.546;2023-05-23T02:29:48;97853.25;;;13.25;100.00
20023;BME280;10172;42.054;24.546;2023-05-23T02:32:13;97860.41;;;13.24;100.00
20023;BME280;10172;42.054;24.546;2023-05-23T02:34:39;97868.22;;;13.37;100.00
20023;BME280;10172;42.054;24.546;2023-05-23T02:37:04;97844.31;;;13.03;100.00
20023;BME280;10172;42.054;24.546;2023-05-23T02:39:30;97857.22;;;12.98;100.00
20023;BME280;10172;42.054;24.546;2023-05-23T02:41:55;97859.34;;;13.15;100.00
20023;BME280;10172;42.054;24.546;2023-05-23T02:44:21;97859.88;;;13.09;100.00
20023;BME280;10172;42.054;24.546;2023-05-23T02:46:46;97857.78;;;13.34;100.00
20023;BME280;10172;42.054;24.546;2023-05-23T02:49:12;97864.66;;;12.95;100.00
20023;BME280;10172;42.054;24.546;2023-05-23T02:51:37;97848.84;;;13.03;100.00
20023;BME280;10172;42.054;24.546;2023-05-23T02:54:03;97871.19;;;13.23;100.00
20023;BME280;10172;42.054;24.546;2023-05-23T02:56:28;97864.03;;;13.44;100.00
20023;BME280;10172;42.054;24.546;2023-05-23T02:58:53;97862.94;;;12.73;100.00
20023;BME280;10172;42.054;24.546;2023-05-23T03:01:19;97858.13;;;12.88;100.00
20023;BME280;10172;42.054;24.546;2023-05-23T03:03:45;97862.41;;;13.32;100.00
20023;BME280;10172;42.054;24.546;2023-05-23T03:06:10;97858.47;;;12.94;100.00
20023;BME280;10172;42.054;24.546;2023-05-23T03:08:39;97843.25;;;12.42;100.00
20023;BME280;10172;42.054;24.546;2023-05-23T03:11:05;97850.63;;;13.34;100.00
20023;BME280;10172;42.054;24.546;2023-05-23T03:13:31;97847.97;;;13.64;100.00
20023;BME280;10172;42.054;24.546;2023-05-23T03:15:56;97857.22;;;13.81;100.00
20023;BME280;10172;42.054;24.546;2023-05-23T03:18:22;97859.59;;;13.84;100.00
20023;BME280;10172;42.054;24.546;2023-05-23T03:20:47;97851.56;;;13.84;100.00
20023;BME280;10172;42.054;24.546;2023-05-23T03:23:13;97854.31;;;14.03;100.00
20023;BME280;10172;42.054;24.546;2023-05-23T03:25:38;97864.91;;;14.05;100.00
20023;BME280;10172;42.054;24.546;2023-05-23T03:28:04;97858.16;;;13.50;100.00
20023;BME280;10172;42.054;24.546;2023-05-23T03:30:29;97858.53;;;13.96;100.00
20023;BME280;10172;42.054;24.546;2023-05-23T03:32:55;97856.03;;;13.23;100.00
20023;BME280;10172;42.054;24.546;2023-05-23T03:35:20;97863.16;;;13.64;100.00
20023;BME280;10172;42.054;24.546;2023-05-23T03:37:45;97872.41;;;13.60;100.00
20023;BME280;10172;42.054;24.546;2023-05-23T03:40:11;97866.78;;;13.33;100.00
20023;BME280;10172;42.054;24.546;2023-05-23T03:42:38;97863.75;;;13.67;100.00
20023;BME280;10172;42.054;24.546;2023-05-23T03:45:04;97869.03;;;13.88;100.00
20023;BME280;10172;42.054;24.546;2023-05-23T03:47:30;97875.34;;;14.17;100.00
20023;BME280;10172;42.054;24.546;2023-05-23T03:49:55;97870.13;;;14.46;100.00
20023;BME280;10172;42.054;24.546;2023-05-23T03:52:21;97862.19;;;13.65;100.00
20023;BME280;10172;42.054;24.546;2023-05-23T03:54:47;97863.94;;;13.25;100.00
20023;BME280;10172;42.054;24.546;2023-05-23T03:57:12;97857.41;;;13.17;100.00
20023;BME280;10172;42.054;24.546;2023-05-23T03:59:37;97859.34;;;13.15;100.00
20023;BME280;10172;42.054;24.546;2023-05-23T04:02:03;97848.66;;;13.57;100.00
20023;BME280;10172;42.054;24.546;2023-05-23T04:04:29;97859.22;;;13.98;100.00
20023;BME280;10172;42.054;24.546;2023-05-23T04:06:55;97860.72;;;13.51;100.00
20023;BME280;10172;42.054;24.546;2023-05-23T04:09:20;97857.56;;;13.97;100.00
20023;BME280;10172;42.054;24.546;2023-05-23T04:11:46;97848.34;;;13.81;100.00
20023;BME280;10172;42.054;24.546;2023-05-23T04:14:12;97860.13;;;14.08;100.00
20023;BME280;10172;42.054;24.546;2023-05-23T04:16:38;97855.22;;;14.13;100.00
20023;BME280;10172;42.054;24.546;2023-05-23T04:19:06;97859.53;;;14.05;100.00
20023;BME280;10172;42.054;24.546;2023-05-23T04:21:32;97859.97;;;14.50;100.00
20023;BME280;10172;42.054;24.546;2023-05-23T04:23:58;97864.69;;;14.27;100.00
20023;BME280;10172;42.054;24.546;2023-05-23T04:26:23;97868.16;;;14.48;100.00
20023;BME280;10172;42.054;24.546;2023-05-23T04:28:49;97869.28;;;14.46;100.00
20023;BME280;10172;42.054;24.546;2023-05-23T04:31:21;97867.59;;;14.64;100.00
20023;BME280;10172;42.054;24.546;2023-05-23T04:33:47;97862.41;;;14.72;100.00
20023;BME280;10172;42.054;24.546;2023-05-23T04:36:13;97863.94;;;15.03;100.00
20023;BME280;10172;42.054;24.546;2023-05-23T04:38:38;97874.66;;;15.51;100.00
20023;BME280;10172;42.054;24.546;2023-05-23T04:41:05;97882.53;;;15.33;100.00
20023;BME280;10172;42.054;24.546;2023-05-23T04:43:31;97874.09;;;15.47;100.00
20023;BME280;10172;42.054;24.546;2023-05-23T04:46:01;97880.38;;;15.66;100.00
20023;BME280;10172;42.054;24.546;2023-05-23T04:48:26;97875.66;;;15.21;100.00
20023;BME280;10172;42.054;24.546;2023-05-23T04:50:52;97868.81;;;15.75;100.00
20023;BME280;10172;42.054;24.546;2023-05-23T04:53:23;97866.19;;;16.56;100.00
20023;BME280;10172;42.054;24.546;2023-05-23T04:55:48;97876.59;;;16.87;100.00
20023;BME280;10172;42.054;24.546;2023-05-23T04:58:14;97882.88;;;17.13;100.00
20023;BME280;10172;42.054;24.546;2023-05-23T05:00:39;97881.44;;;17.18;100.00
20023;BME280;10172;42.054;24.546;2023-05-23T05:03:05;97900.66;;;17.49;100.00
20023;BME280;10172;42.054;24.546;2023-05-23T05:05:30;97898.81;;;17.67;100.00
20023;BME280;10172;42.054;24.546;2023-05-23T05:07:56;97898.41;;;17.80;100.00
20023;BME280;10172;42.054;24.546;2023-05-23T05:10:21;97886.06;;;17.69;100.00
20023;BME280;10172;42.054;24.546;2023-05-23T05:12:47;97901.59;;;18.09;100.00
20023;BME280;10172;42.054;24.546;2023-05-23T05:15:16;97900.69;;;18.26;100.00
20023;BME280;10172;42.054;24.546;2023-05-23T05:17:43;97907.91;;;18.26;100.00
20023;BME280;10172;42.054;24.546;2023-05-23T05:20:09;97902.94;;;18.39;100.00
20023;BME280;10172;42.054;24.546;2023-05-23T05:22:38;97907.53;;;18.13;100.00
20023;BME280;10172;42.054;24.546;2023-05-23T05:25:08;97913.25;;;18.43;100.00
20023;BME280;10172;42.054;24.546;2023-05-23T05:27:34;97911.69;;;18.75;100.00
20023;BME280;10172;42.054;24.546;2023-05-23T05:30:06;97917.72;;;18.69;100.00
20023;BME280;10172;42.054;24.546;2023-05-23T05:32:31;97926.78;;;19.09;98.91
20023;BME280;10172;42.054;24.546;2023-05-23T05:35:01;97927.94;;;19.07;99.39
20023;BME280;10172;42.054;24.546;2023-05-23T05:37:27;97923.31;;;19.49;97.86
20023;BME280;10172;42.054;24.546;2023-05-23T05:39:53;97927.50;;;19.68;94.73
20023;BME280;10172;42.054;24.546;2023-05-23T05:42:20;97936.69;;;18.51;95.24
20023;BME280;10172;42.054;24.546;2023-05-23T05:44:46;97924.59;;;18.63;94.25
20023;BME280;10172;42.054;24.546;2023-05-23T05:47:12;97917.78;;;18.93;94.00
20023;BME280;10172;42.054;24.546;2023-05-23T05:49:37;97936.44;;;19.44;93.65
20023;BME280;10172;42.054;24.546;2023-05-23T05:52:03;97931.53;;;19.32;91.86
20023;BME280;10172;42.054;24.546;2023-05-23T05:54:29;97928.09;;;18.97;94.52
20023;BME280;10172;42.054;24.546;2023-05-23T05:56:54;97933.09;;;19.75;92.53
20023;BME280;10172;42.054;24.546;2023-05-23T05:59:20;97935.78;;;19.66;91.18
20023;BME280;10172;42.054;24.546;2023-05-23T06:01:45;97932.91;;;20.00;91.56
20023;BME280;10172;42.054;24.546;2023-05-23T06:04:11;97941.81;;;20.25;88.65
20023;BME280;10172;42.054;24.546;2023-05-23T06:06:36;97948.34;;;20.39;88.48
20023;BME280;10172;42.054;24.546;2023-05-23T06:09:02;97939.50;;;20.61;87.41
20023;BME280;10172;42.054;24.546;2023-05-23T06:11:27;97936.50;;;20.56;85.33
20023;BME280;10172;42.054;24.546;2023-05-23T06:13:53;97937.38;;;20.48;86.57
20023;BME280;10172;42.054;24.546;2023-05-23T06:16:18;97938.66;;;20.60;86.00
20023;BME280;10172;42.054;24.546;2023-05-23T06:18:44;97941.63;;;20.81;84.97
20023;BME280;10172;42.054;24.546;2023-05-23T06:21:09;97933.19;;;20.38;84.41
20023;BME280;10172;42.054;24.546;2023-05-23T06:23:35;97930.53;;;19.97;86.09
20023;BME280;10172;42.054;24.546;2023-05-23T06:26:00;97920.66;;;20.45;85.03
20023;BME280;10172;42.054;24.546;2023-05-23T06:28:26;97935.56;;;20.33;84.40
20023;BME280;10172;42.054;24.546;2023-05-23T06:30:51;97921.31;;;19.67;88.31
20023;BME280;10172;42.054;24.546;2023-05-23T06:33:17;97927.03;;;19.48;88.00
20023;BME280;10172;42.054;24.546;2023-05-23T06:35:42;97919.38;;;20.16;88.40
20023;BME280;10172;42.054;24.546;2023-05-23T06:38:08;97919.66;;;21.15;85.77
20023;BME280;10172;42.054;24.546;2023-05-23T06:40:33;97912.41;;;21.38;82.52
20023;BME280;10172;42.054;24.546;2023-05-23T06:42:59;97916.31;;;21.59;81.99
20023;BME280;10172;42.054;24.546;2023-05-23T06:45:24;97906.44;;;21.66;80.35
20023;BME280;10172;42.054;24.546;2023-05-23T06:47:50;97911.09;;;21.34;84.09
20023;BME280;10172;42.054;24.546;2023-05-23T06:50:16;97909.47;;;21.48;83.78
20023;BME280;10172;42.054;24.546;2023-05-23T06:52:45;97903.59;;;22.34;82.85
20023;BME280;10172;42.054;24.546;2023-05-23T06:55:11;97903.13;;;22.30;82.79
20023;BME280;10172;42.054;24.546;2023-05-23T06:57:42;97892.84;;;20.75;87.02
20023;BME280;10172;42.054;24.546;2023-05-23T07:00:08;97904.34;;;21.00;88.25
20023;BME280;10172;42.054;24.546;2023-05-23T07:02:34;97899.66;;;20.00;89.62
20023;BME280;10172;42.054;24.546;2023-05-23T07:04:59;97899.63;;;20.63;88.14
20023;BME280;10172;42.054;24.546;2023-05-23T07:07:25;97897.91;;;20.31;89.38
20023;BME280;10172;42.054;24.546;2023-05-23T07:09:50;97910.75;;;21.07;83.37
20023;BME280;10172;42.054;24.546;2023-05-23T07:12:16;97904.72;;;20.97;83.00
20023;BME280;10172;42.054;24.546;2023-05-23T07:14:41;97904.16;;;20.78;84.77
20023;BME280;10172;42.054;24.546;2023-05-23T07:17:06;97904.69;;;21.50;83.99
20023;BME280;10172;42.054;24.546;2023-05-23T07:19:32;97901.50;;;21.92;80.27
20023;BME280;10172;42.054;24.546;2023-05-23T07:21:57;97896.28;;;21.22;83.94
20023;BME280;10172;42.054;24.546;2023-05-23T07:24:23;97898.63;;;21.25;83.81
20023;BME280;10172;42.054;24.546;2023-05-23T07:26:48;97893.84;;;21.05;82.58
20023;BME280;10172;42.054;24.546;2023-05-23T07:29:14;97892.91;;;21.66;81.91
20023;BME280;10172;42.054;24.546;2023-05-23T07:31:39;97896.63;;;21.27;83.54
20023;BME280;10172;42.054;24.546;2023-05-23T07:34:05;97889.22;;;21.21;83.24
20023;BME280;10172;42.054;24.546;2023-05-23T07:36:30;97892.66;;;21.53;81.97
20023;BME280;10172;42.054;24.546;2023-05-23T07:38:58;97897.31;;;21.21;82.18
20023;BME280;10172;42.054;24.546;2023-05-23T07:41:24;97902.84;;;21.73;81.28
20023;BME280;10172;42.054;24.546;2023-05-23T07:43:49;97905.06;;;21.84;77.73
20023;BME280;10172;42.054;24.546;2023-05-23T07:46:15;97892.97;;;21.58;79.16
20023;BME280;10172;42.054;24.546;2023-05-23T07:48:41;97897.38;;;21.96;79.08
20023;BME280;10172;42.054;24.546;2023-05-23T07:51:06;97879.84;;;21.69;76.89
20023;BME280;10172;42.054;24.546;2023-05-23T07:53:32;97884.97;;;22.01;79.42
20023;BME280;10172;42.054;24.546;2023-05-23T07:55:57;97884.72;;;22.11;78.35
20023;BME280;10172;42.054;24.546;2023-05-23T07:58:23;97879.59;;;22.96;75.41
20023;BME280;10172;42.054;24.546;2023-05-23T08:00:49;97866.75;;;23.40;73.62
20023;BME280;10172;42.054;24.546;2023-05-23T08:03:14;97867.38;;;23.21;75.53
20023;BME280;10172;42.054;24.546;2023-05-23T08:05:41;97871.66;;;23.30;73.98
20023;BME280;10172;42.054;24.546;2023-05-23T08:08:06;97866.13;;;23.23;72.71
20023;BME280;10172;42.054;24.546;2023-05-23T08:10:32;97872.31;;;23.53;73.51
20023;BME280;10172;42.054;24.546;2023-05-23T08:12:58;97871.53;;;24.43;71.45
20023;BME280;10172;42.054;24.546;2023-05-23T08:15:24;97857.28;;;23.15;70.36
20023;BME280;10172;42.054;24.546;2023-05-23T08:17:50;97861.09;;;22.85;73.06
20023;BME280;10172;42.054;24.546;2023-05-23T08:20:20;97858.34;;;23.56;72.02
20023;BME280;10172;42.054;24.546;2023-05-23T08:22:46;97861.09;;;24.12;69.22
20023;BME280;10172;42.054;24.546;2023-05-23T08:25:11;97857.56;;;23.90;68.26
20023;BME280;10172;42.054;24.546;2023-05-23T08:27:37;97846.28;;;24.55;65.18
20023;BME280;10172;42.054;24.546;2023-05-23T08:30:03;97849.69;;;23.46;68.03
20023;BME280;10172;42.054;24.546;2023-05-23T08:32:29;97853.88;;;23.98;66.06
20023;BME280;10172;42.054;24.546;2023-05-23T08:34:54;97849.53;;;23.12;63.67
20023;BME280;10172;42.054;24.546;2023-05-23T08:37:20;97852.50;;;23.17;65.05
20023;BME280;10172;42.054;24.546;2023-05-23T08:39:45;97845.47;;;24.55;62.97
20023;BME280;10172;42.054;24.546;2023-05-23T08:42:11;97837.38;;;25.48;61.46
20023;BME280;10172;42.054;24.546;2023-05-23T08:44:36;97844.97;;;24.38;64.17
20023;BME280;10172;42.054;24.546;2023-05-23T08:47:03;97847.75;;;24.58;61.33
20023;BME280;10172;42.054;24.546;2023-05-23T08:49:29;97852.47;;;25.83;58.95
20023;BME280;10172;42.054;24.546;2023-05-23T08:52:00;97852.72;;;24.88;60.92
20023;BME280;10172;42.054;24.546;2023-05-23T08:54:26;97847.06;;;23.80;61.93
20023;BME280;10172;42.054;24.546;2023-05-23T08:56:53;97844.81;;;23.20;63.76
20023;BME280;10172;42.054;24.546;2023-05-23T08:59:20;97854.84;;;23.62;64.01
20023;BME280;10172;42.054;24.546;2023-05-23T09:01:47;97846.91;;;22.83;66.20
20023;BME280;10172;42.054;24.546;2023-05-23T09:04:12;97841.63;;;22.96;64.27
20023;BME280;10172;42.054;24.546;2023-05-23T09:06:38;97843.47;;;24.08;64.35
20023;BME280;10172;42.054;24.546;2023-05-23T09:09:03;97843.59;;;23.65;63.76
20023;BME280;10172;42.054;24.546;2023-05-23T09:11:29;97839.84;;;24.69;61.91
20023;BME280;10172;42.054;24.546;2023-05-23T09:13:58;97839.63;;;24.64;62.45
20023;BME280;10172;42.054;24.546;2023-05-23T09:16:31;97838.97;;;25.10;59.70
20023;BME280;10172;42.054;24.546;2023-05-23T09:18:57;97826.88;;;25.32;56.94
20023;BME280;10172;42.054;24.546;2023-05-23T09:21:23;97832.97;;;24.73;58.34
20023;BME280;10172;42.054;24.546;2023-05-23T09:23:49;97833.34;;;25.44;56.15
20023;BME280;10172;42.054;24.546;2023-05-23T09:26:14;97828.16;;;25.69;55.22
20023;BME280;10172;42.054;24.546;2023-05-23T09:28:41;97836.88;;;26.43;55.08
20023;BME280;10172;42.054;24.546;2023-05-23T09:31:07;97828.72;;;26.43;53.38
20023;BME280;10172;42.054;24.546;2023-05-23T09:33:45;97831.91;;;26.20;53.05
20023;BME280;10172;42.054;24.546;2023-05-23T09:36:15;97822.09;;;26.70;51.93
20023;BME280;10172;42.054;24.546;2023-05-23T09:38:42;97822.69;;;26.01;53.26
20023;BME280;10172;42.054;24.546;2023-05-23T09:41:09;97830.22;;;26.12;51.42
20023;BME280;10172;42.054;24.546;2023-05-23T09:43:52;97828.09;;;26.41;51.21
20023;BME280;10172;42.054;24.546;2023-05-23T09:46:20;97824.22;;;26.61;51.12
20023;BME280;10172;42.054;24.546;2023-05-23T09:48:49;97830.91;;;27.54;51.68
20023;BME280;10172;42.054;24.546;2023-05-23T09:51:21;97817.78;;;27.00;49.60
20023;BME280;10172;42.054;24.546;2023-05-23T09:53:47;97819.00;;;27.67;50.17
20023;BME280;10172;42.054;24.546;2023-05-23T09:56:14;97815.88;;;27.88;48.79
20023;BME280;10172;42.054;24.546;2023-05-23T09:58:47;97813.44;;;27.55;47.99
20023;BME280;10172;42.054;24.546;2023-05-23T10:01:13;97820.69;;;27.05;48.15
20023;BME280;10172;42.054;24.546;2023-05-23T10:06:31;97815.81;;;27.14;48.30
20023;BME280;10172;42.054;24.546;2023-05-23T10:09:05;97815.34;;;27.55;48.01
20023;BME280;10172;42.054;24.546;2023-05-23T10:14:01;97811.06;;;27.03;47.87
20023;BME280;10172;42.054;24.546;2023-05-23T10:22:09;97804.88;;;28.37;47.40
20023;BME280;10172;42.054;24.546;2023-05-23T10:24:35;97802.38;;;28.18;43.54
20023;BME280;10172;42.054;24.546;2023-05-23T10:27:02;97794.22;;;28.47;44.25
20023;BME280;10172;42.054;24.546;2023-05-23T10:29:28;97794.06;;;28.61;42.52
20023;BME280;10172;42.054;24.546;2023-05-23T10:31:56;97785.59;;;28.32;42.56
20023;BME280;10172;42.054;24.546;2023-05-23T10:37:06;97794.78;;;29.04;42.42
20023;BME280;10172;42.054;24.546;2023-05-23T10:39:57;97787.91;;;28.83;41.13
20023;BME280;10172;42.054;24.546;2023-05-23T10:45:41;97792.88;;;28.20;40.98
20023;BME280;10172;42.054;24.546;2023-05-23T10:48:22;97790.91;;;28.82;40.04
20023;BME280;10172;42.054;24.546;2023-05-23T10:51:11;97796.13;;;28.29;40.62
20023;BME280;10172;42.054;24.546;2023-05-23T10:53:40;97788.47;;;28.37;40.80
20023;BME280;10172;42.054;24.546;2023-05-23T10:56:08;97789.22;;;28.44;43.27
20023;BME280;10172;42.054;24.546;2023-05-23T10:58:35;97786.88;;;28.48;41.19
20023;BME280;10172;42.054;24.546;2023-05-23T11:01:04;97787.00;;;28.53;42.60
20023;BME280;10172;42.054;24.546;2023-05-23T11:03:31;97792.09;;;28.86;41.88
20023;BME280;10172;42.054;24.546;2023-05-23T11:06:01;97796.19;;;28.04;43.67
20023;BME280;10172;42.054;24.546;2023-05-23T11:08:27;97794.66;;;28.99;40.92
20023;BME280;10172;42.054;24.546;2023-05-23T11:11:02;97782.13;;;28.55;42.76
20023;BME280;10172;42.054;24.546;2023-05-23T11:13:56;97781.78;;;28.52;41.48
20023;BME280;10172;42.054;24.546;2023-05-23T11:16:40;97788.88;;;29.48;39.11
20023;BME280;10172;42.054;24.546;2023-05-23T11:21:44;97786.81;;;27.94;45.07
20023;BME280;10172;42.054;24.546;2023-05-23T11:24:10;97785.06;;;28.60;44.43
20023;BME280;10172;42.054;24.546;2023-05-23T11:26:36;97788.47;;;29.33;41.91
20023;BME280;10172;42.054;24.546;2023-05-23T11:29:02;97785.56;;;29.17;42.60
20023;BME280;10172;42.054;24.546;2023-05-23T11:31:36;97783.81;;;28.74;41.69
20023;BME280;10172;42.054;24.546;2023-05-23T11:34:02;97793.31;;;28.17;43.40
20023;BME280;10172;42.054;24.546;2023-05-23T11:36:28;97790.28;;;28.62;43.19
20023;BME280;10172;42.054;24.546;2023-05-23T11:38:54;97785.97;;;29.32;41.12
20023;BME280;10172;42.054;24.546;2023-05-23T11:41:20;97770.72;;;29.89;39.78
20023;BME280;10172;42.054;24.546;2023-05-23T11:43:52;97785.44;;;29.64;39.95
20023;BME280;10172;42.054;24.546;2023-05-23T11:46:18;97789.94;;;29.47;40.00
20023;BME280;10172;42.054;24.546;2023-05-23T11:48:47;97781.81;;;29.29;41.02
20023;BME280;10172;42.054;24.546;2023-05-23T11:51:13;97795.22;;;28.89;43.90
20023;BME280;10172;42.054;24.546;2023-05-23T11:53:39;97786.28;;;28.94;43.72
20023;BME280;10172;42.054;24.546;2023-05-23T11:56:05;97774.03;;;28.96;43.40
20023;BME280;10172;42.054;24.546;2023-05-23T11:58:38;97769.41;;;28.67;42.73
20023;BME280;10172;42.054;24.546;2023-05-23T12:01:11;97769.88;;;28.94;44.77
20023;BME280;10172;42.054;24.546;2023-05-23T12:03:50;97766.28;;;28.93;43.35
20023;BME280;10172;42.054;24.546;2023-05-23T12:06:20;97763.84;;;29.15;43.94
20023;BME280;10172;42.054;24.546;2023-05-23T12:08:47;97767.44;;;29.57;42.34
20023;BME280;10172;42.054;24.546;2023-05-23T12:11:13;97767.44;;;29.57;41.93
20023;BME280;10172;42.054;24.546;2023-05-23T12:13:40;97752.47;;;28.40;41.19
20023;BME280;10172;42.054;24.546;2023-05-23T12:16:06;97759.94;;;29.11;41.42
20023;BME280;10172;42.054;24.546;2023-05-23T12:18:32;97759.28;;;28.49;43.67
20023;BME280;10172;42.054;24.546;2023-05-23T12:21:02;97754.97;;;28.24;44.49
20023;BME280;10172;42.054;24.546;2023-05-23T12:23:30;97753.13;;;28.72;42.02
20023;BME280;10172;42.054;24.546;2023-05-23T12:25:56;97743.03;;;29.14;40.35
20023;BME280;10172;42.054;24.546;2023-05-23T12:28:42;97740.66;;;29.18;41.11
20023;BME280;10172;42.054;24.546;2023-05-23T12:31:15;97736.34;;;29.75;40.44
20023;BME280;10172;42.054;24.546;2023-05-23T12:33:42;97744.06;;;29.43;43.33
20023;BME280;10172;42.054;24.546;2023-05-23T12:36:09;97736.09;;;29.53;44.67
20023;BME280;10172;42.054;24.546;2023-05-23T12:38:36;97739.66;;;29.77;43.34
20023;BME280;10172;42.054;24.546;2023-05-23T12:41:15;97727.47;;;29.26;42.34
20023;BME280;10172;42.054;24.546;2023-05-23T12:43:51;97726.19;;;29.40;42.66
20023;BME280;10172;42.054;24.546;2023-05-23T12:46:19;97714.66;;;29.50;46.46
20023;BME280;10172;42.054;24.546;2023-05-23T12:48:44;97714.19;;;29.88;42.94
20023;BME280;10172;42.054;24.546;2023-05-23T12:51:10;97712.28;;;29.53;42.96
20023;BME280;10172;42.054;24.546;2023-05-23T12:53:35;97715.84;;;29.42;41.30
20023;BME280;10172;42.054;24.546;2023-05-23T12:56:01;97711.06;;;29.26;44.46
20023;BME280;10172;42.054;24.546;2023-05-23T12:58:26;97715.72;;;28.96;46.70
20023;BME280;10172;42.054;24.546;2023-05-23T13:00:52;97712.59;;;29.22;46.14
20023;BME280;10172;42.054;24.546;2023-05-23T13:03:18;97706.22;;;28.69;46.63
20023;BME280;10172;42.054;24.546;2023-05-23T13:05:43;97705.78;;;28.54;47.61
20023;BME280;10172;42.054;24.546;2023-05-23T13:08:09;97697.16;;;28.38;47.21
20023;BME280;10172;42.054;24.546;2023-05-23T13:10:36;97704.84;;;28.78;49.93